Terminal Aerodrome Forecast
Issued by NWS Houston/Galveston, TX

Home | Current Version | Previous Version | Text Only | Print | Product List | Glossary On
Versions: 1 2 3 4 5 6 7 8 9 10 11 12 13 14 15 16 17 18 19 20 21
000
FTUS44 KHGX 231120
TAFGLS
TAF
KGLS 231120Z 2312/2412 10006KT P6SM SCT020
     FM231400 10008KT P6SM SCT025
     FM231900 11010KT P6SM FEW030
      AMD NOT SKED=

USA.gov is the U.S. government's official web portal to all federal, state and local government web resources and services.